createdAt,value
2022-10-06T00:00:35.460Z,-23440.72
2022-10-06T00:03:02.640Z,-23419.41
2022-10-06T00:05:29.655Z,-23418.91
2022-10-06T00:07:56.185Z,-23429.59
2022-10-06T00:10:23.135Z,-23420.63
2022-10-06T00:12:51.617Z,-23424.25
2022-10-06T00:15:27.077Z,-23422.31
2022-10-06T00:17:53.711Z,-23419.88
2022-10-06T00:20:21.211Z,-23423.03
2022-10-06T00:22:50.136Z,-23411.16
2022-10-06T00:25:22.338Z,-23395.66
2022-10-06T00:27:51.071Z,-23393.25
2022-10-06T00:30:20.726Z,-23387.91
2022-10-06T00:32:59.040Z,-23389.59
2022-10-06T00:35:26.935Z,-23393.72
2022-10-06T00:37:53.856Z,-23408.25
2022-10-06T00:40:21.385Z,-23412.13
2022-10-06T00:42:56.846Z,-23414.56
2022-10-06T00:45:43.084Z,-23422.31
2022-10-06T00:48:39.040Z,-23425.94
2022-10-06T00:51:05.945Z,-23420.38
2022-10-06T00:53:33.018Z,-23427.41
2022-10-06T00:56:00.079Z,-23419.66
2022-10-06T00:58:27.085Z,-23427.66
2022-10-06T01:00:55.138Z,-23409.72
2022-10-06T01:03:27.259Z,-23405.34
2022-10-06T01:05:55.514Z,-23417.94
2022-10-06T01:08:22.962Z,-23413.09
2022-10-06T01:10:49.611Z,-23398.56
2022-10-06T01:13:17.598Z,-23406.31
2022-10-06T01:16:30.336Z,-23403.41
2022-10-06T01:18:56.985Z,-23388.38
2022-10-06T01:21:51.221Z,-23373.13
2022-10-06T01:24:18.760Z,-23376.03
2022-10-06T01:26:50.090Z,-23382.31
2022-10-06T01:29:17.373Z,-23383.53
2022-10-06T01:31:44.068Z,-23388.88
2022-10-06T01:34:10.878Z,-23381.34
2022-10-06T01:36:40.363Z,-23380.16
2022-10-06T01:39:06.930Z,-23393.72
2022-10-06T01:41:34.414Z,-23393.47
2022-10-06T01:44:01.084Z,-23390.81
2022-10-06T01:46:30.048Z,-23398.06
2022-10-06T01:48:56.913Z,-23384.75
2022-10-06T01:51:23.460Z,-23373.84
2022-10-06T01:53:50.078Z,-23379.91
2022-10-06T01:56:16.612Z,-23367.31
2022-10-06T01:58:43.294Z,-23384.25
2022-10-06T02:01:10.449Z,-23383.06
2022-10-06T02:03:39.256Z,-23393.72
2022-10-06T02:06:06.584Z,-23363.19
2022-10-06T02:08:33.871Z,-23347.69
2022-10-06T02:11:09.375Z,-23343.34
2022-10-06T02:13:36.704Z,-23361.97
2022-10-06T02:16:03.998Z,-23374.34
2022-10-06T02:18:30.910Z,-23382.09
2022-10-06T02:20:57.836Z,-23383.53
2022-10-06T02:23:24.315Z,-23386.94
2022-10-06T02:25:58.965Z,-23379.19
2022-10-06T02:28:26.631Z,-23378.22
2022-10-06T02:30:53.523Z,-23384.75
2022-10-06T02:33:20.096Z,-23396.16
2022-10-06T02:35:47.206Z,-23405.59
2022-10-06T02:38:13.745Z,-23406.56
2022-10-06T02:40:40.270Z,-23404.88
2022-10-06T02:43:06.853Z,-23403.91
2022-10-06T02:45:33.382Z,-23396.16
2022-10-06T02:47:59.898Z,-23391.06
2022-10-06T02:50:26.436Z,-23385.22
2022-10-06T02:52:52.922Z,-23390.31
2022-10-06T02:55:19.442Z,-23396.63
2022-10-06T02:57:46.107Z,-23385.97
2022-10-06T03:00:13.188Z,-23382.56
2022-10-06T03:02:39.954Z,-23393.25
2022-10-06T03:05:06.936Z,-23393.72
2022-10-06T03:07:33.454Z,-23399.28
2022-10-06T03:10:00.087Z,-23412.63
2022-10-06T03:12:26.841Z,-23398.56
2022-10-06T03:14:53.355Z,-23395.16
2022-10-06T03:17:19.933Z,-23402.94
2022-10-06T03:19:46.416Z,-23398.31
2022-10-06T03:22:12.925Z,-23394.44
2022-10-06T03:24:39.457Z,-23398.56
2022-10-06T03:27:05.954Z,-23414.06
2022-10-06T03:29:32.492Z,-23421.34
2022-10-06T03:31:59.128Z,-23428.13
2022-10-06T03:34:25.837Z,-23432.97
2022-10-06T03:36:52.355Z,-23423.78
2022-10-06T03:39:19.002Z,-23422.06
2022-10-06T03:41:45.676Z,-23424.72
2022-10-06T03:44:12.167Z,-23412.63
2022-10-06T03:46:38.850Z,-23416.75
2022-10-06T03:49:05.538Z,-23420.13
2022-10-06T03:51:37.841Z,-23424.25
2022-10-06T03:54:05.309Z,-23425.22
2022-10-06T03:56:37.988Z,-23427.16
2022-10-06T03:59:10.347Z,-23431.78
2022-10-06T04:01:38.406Z,-23427.66
2022-10-06T04:04:06.063Z,-23432.97
2022-10-06T04:06:35.515Z,-23438.31
2022-10-06T04:09:03.043Z,-23429.34
2022-10-06T04:11:32.623Z,-23423.03
2022-10-06T04:14:04.748Z,-23433.94
2022-10-06T04:16:34.217Z,-23438.78
2022-10-06T04:19:03.869Z,-23437.34
2022-10-06T04:21:32.336Z,-23444.84
2022-10-06T04:24:00.061Z,-23437.81
2022-10-06T04:26:30.731Z,-23434.91
2022-10-06T04:28:57.774Z,-23427.16
2022-10-06T04:31:31.019Z,-23429.81
2022-10-06T04:33:59.807Z,-23422.31
2022-10-06T04:36:28.435Z,-23419.41
2022-10-06T04:38:58.898Z,-23429.81
2022-10-06T04:41:36.964Z,-23418.44
2022-10-06T04:44:04.659Z,-23424.97
2022-10-06T04:46:47.919Z,-23425.69
2022-10-06T04:49:19.490Z,-23425.94
2022-10-06T04:51:48.342Z,-23429.09
2022-10-06T04:54:14.867Z,-23434.19
2022-10-06T04:56:41.448Z,-23441.72
2022-10-06T04:59:08.081Z,-23440.97
2022-10-06T05:01:39.260Z,-23437.81
2022-10-06T05:04:06.444Z,-23441.22
2022-10-06T05:06:38.712Z,-23445.09
2022-10-06T05:09:10.940Z,-23433.94
2022-10-06T05:11:38.160Z,-23437.09
2022-10-06T05:14:05.698Z,-23436.59
2022-10-06T05:16:32.462Z,-23437.56
2022-10-06T05:18:59.256Z,-23445.56
2022-10-06T05:21:28.674Z,-23444.63
2022-10-06T05:23:55.371Z,-23442.66
2022-10-06T05:26:24.121Z,-23452.38
2022-10-06T05:28:51.127Z,-23442.66
2022-10-06T05:31:21.032Z,-23437.09
2022-10-06T05:33:48.060Z,-23437.34
2022-10-06T05:36:19.671Z,-23440.72
2022-10-06T05:38:47.223Z,-23426.69
2022-10-06T05:41:15.078Z,-23422.78
2022-10-06T05:43:42.406Z,-23429.34
2022-10-06T05:46:17.554Z,-23422.56
2022-10-06T05:48:49.251Z,-23418.44
2022-10-06T05:51:17.165Z,-23417.94
2022-10-06T05:53:44.511Z,-23420.38
2022-10-06T05:56:19.448Z,-23426.44
2022-10-06T05:58:48.511Z,-23432.00
2022-10-06T06:01:21.642Z,-23442.19
2022-10-06T06:03:50.882Z,-23435.41
2022-10-06T06:06:18.801Z,-23436.38
2022-10-06T06:08:46.245Z,-23426.91
2022-10-06T06:11:12.959Z,-23419.88
2022-10-06T06:13:39.604Z,-23417.72
2022-10-06T06:16:08.071Z,-23419.41
2022-10-06T06:18:37.036Z,-23415.53
2022-10-06T06:21:06.638Z,-23434.44
2022-10-06T06:23:36.348Z,-23424.97
2022-10-06T06:26:11.381Z,-23420.13
2022-10-06T06:28:38.456Z,-23424.97
2022-10-06T06:31:19.695Z,-23419.88
2022-10-06T06:33:47.644Z,-23423.28
2022-10-06T06:36:20.256Z,-23441.22
2022-10-06T06:38:51.988Z,-23456.97
2022-10-06T06:41:19.993Z,-23461.81
2022-10-06T06:43:46.741Z,-23460.59
2022-10-06T06:46:15.220Z,-23449.94
2022-10-06T06:48:42.173Z,-23458.44
2022-10-06T06:51:11.545Z,-23457.22
2022-10-06T06:53:39.371Z,-23469.34
2022-10-06T06:56:08.324Z,-23475.63
2022-10-06T06:58:37.997Z,-23477.81
2022-10-06T07:01:14.177Z,-23472.47
2022-10-06T07:03:57.123Z,-23476.59
2022-10-06T07:06:28.180Z,-23487.28
2022-10-06T07:08:56.011Z,-23479.75
2022-10-06T07:11:29.432Z,-23477.56
2022-10-06T07:14:01.459Z,-23480.97
2022-10-06T07:16:48.106Z,-23489.44
2022-10-06T07:19:35.074Z,-23493.09
2022-10-06T07:22:26.395Z,-23471.25
2022-10-06T07:25:07.709Z,-23460.13
2022-10-06T07:27:56.471Z,-23475.41
2022-10-06T07:30:28.196Z,-23492.13
2022-10-06T07:32:55.237Z,-23490.91
2022-10-06T07:35:22.954Z,-23486.53
2022-10-06T07:37:53.383Z,-23497.94
2022-10-06T07:40:20.219Z,-23493.09
2022-10-06T07:42:52.001Z,-23504.97
2022-10-06T07:45:45.086Z,-23518.31
2022-10-06T07:48:14.632Z,-23530.44
2022-10-06T07:50:44.354Z,-23530.44
2022-10-06T07:53:11.388Z,-23539.16
2022-10-06T07:55:40.065Z,-23539.41
2022-10-06T07:58:13.994Z,-23542.78
2022-10-06T08:00:41.694Z,-23545.69
2022-10-06T08:03:09.111Z,-23544.97
2022-10-06T08:05:36.346Z,-23548.84
2022-10-06T08:08:02.850Z,-23560.97
2022-10-06T08:10:29.288Z,-23555.63
2022-10-06T08:12:55.884Z,-23561.94
2022-10-06T08:15:22.413Z,-23564.38
2022-10-06T08:17:48.949Z,-23563.88
2022-10-06T08:20:17.256Z,-23568.25
2022-10-06T08:22:44.006Z,-23570.19
2022-10-06T08:25:11.079Z,-23562.91
2022-10-06T08:27:38.346Z,-23567.03
2022-10-06T08:30:07.214Z,-23556.13
2022-10-06T08:32:34.229Z,-23558.06
2022-10-06T08:35:00.996Z,-23560.50
2022-10-06T08:37:27.807Z,-23568.75
2022-10-06T08:39:54.999Z,-23568.75
2022-10-06T08:42:42.570Z,-23571.66
2022-10-06T08:45:21.516Z,-23575.03
2022-10-06T08:47:52.619Z,-23589.59
2022-10-06T08:50:21.357Z,-23589.09
2022-10-06T08:53:05.996Z,-23600.50
2022-10-06T08:55:57.782Z,-23592.75
2022-10-06T08:58:36.908Z,-23594.44
2022-10-06T09:01:19.943Z,-23586.91
2022-10-06T09:03:48.927Z,-23588.16
2022-10-06T09:06:45.361Z,-23600.03
2022-10-06T09:09:30.928Z,-23599.06
2022-10-06T09:12:14.827Z,-23592.03
2022-10-06T09:14:54.476Z,-23584.75
2022-10-06T09:17:27.583Z,-23587.66
2022-10-06T09:20:01.534Z,-23592.50
2022-10-06T09:22:31.736Z,-23594.94
2022-10-06T09:25:14.848Z,-23584.75
2022-10-06T09:27:41.568Z,-23600.50
2022-10-06T09:30:12.403Z,-23613.13
2022-10-06T09:32:45.067Z,-23604.63
2022-10-06T09:35:19.378Z,-23603.41
2022-10-06T09:37:57.160Z,-23603.66
2022-10-06T09:40:48.723Z,-23609.97
2022-10-06T09:43:25.794Z,-23607.06
2022-10-06T09:45:54.774Z,-23609.25
2022-10-06T09:48:25.122Z,-23601.72
2022-10-06T09:51:10.450Z,-23603.66
2022-10-06T09:53:39.514Z,-23601.25
2022-10-06T09:56:20.303Z,-23613.38
2022-10-06T09:58:59.033Z,-23611.19
2022-10-06T10:01:28.743Z,-23612.16
2022-10-06T10:04:19.594Z,-23612.63
2022-10-06T10:06:47.943Z,-23605.59
2022-10-06T10:09:22.123Z,-23604.38
2022-10-06T10:12:26.740Z,-23614.34
2022-10-06T10:15:19.201Z,-23615.31
2022-10-06T10:18:04.453Z,-23619.44
2022-10-06T10:20:34.447Z,-23615.06
2022-10-06T10:23:28.629Z,-23622.59
2022-10-06T10:26:04.519Z,-23625.50
2022-10-06T10:28:52.311Z,-23631.78
2022-10-06T10:31:24.126Z,-23631.56
2022-10-06T10:34:20.226Z,-23632.28
2022-10-06T10:37:14.077Z,-23639.09
2022-10-06T10:40:02.159Z,-23648.78
2022-10-06T10:42:37.285Z,-23640.53
2022-10-06T10:45:11.180Z,-23627.19
2022-10-06T10:47:39.526Z,-23632.78
2022-10-06T10:50:34.031Z,-23643.44
2022-10-06T10:53:42.937Z,-23638.84
2022-10-06T10:56:12.131Z,-23642.47
2022-10-06T10:58:47.684Z,-23634.22
2022-10-06T11:01:14.237Z,-23637.88
2022-10-06T11:03:41.170Z,-23651.69
2022-10-06T11:06:14.598Z,-23661.41
2022-10-06T11:08:49.603Z,-23669.16
2022-10-06T11:12:00.942Z,-23676.44
2022-10-06T11:14:50.572Z,-23682.00
2022-10-06T11:17:45.307Z,-23668.91
2022-10-06T11:20:30.574Z,-23666.00
2022-10-06T11:23:11.922Z,-23659.22
2022-10-06T11:26:03.900Z,-23661.16
2022-10-06T11:28:49.824Z,-23661.41
2022-10-06T11:31:33.430Z,-23676.69
2022-10-06T11:34:04.456Z,-23670.84
2022-10-06T11:36:47.206Z,-23669.16
2022-10-06T11:39:51.222Z,-23661.66
2022-10-06T11:42:50.127Z,-23656.31
2022-10-06T11:45:22.063Z,-23670.84
2022-10-06T11:48:01.837Z,-23672.31
2022-10-06T11:50:40.290Z,-23665.75
2022-10-06T11:53:26.312Z,-23675.69
2022-10-06T11:56:17.912Z,-23669.41
2022-10-06T11:58:50.689Z,-23675.47
2022-10-06T12:01:36.363Z,-23691.00
2022-10-06T12:04:09.034Z,-23686.13
2022-10-06T12:06:47.543Z,-23668.69
2022-10-06T12:09:26.273Z,-23687.13
2022-10-06T12:12:03.372Z,-23683.47
2022-10-06T12:17:30.684Z,-23667.69
2022-10-06T12:20:34.918Z,-23677.91
2022-10-06T12:23:17.167Z,-23703.13
2022-10-06T12:25:58.839Z,-23699.72
2022-10-06T12:28:47.379Z,-23699.72
2022-10-06T12:31:51.268Z,-23691.00
2022-10-06T12:34:39.720Z,-23699.25
2022-10-06T12:37:43.507Z,-23694.63
2022-10-06T12:40:40.991Z,-23711.88
2022-10-06T12:43:20.549Z,-23702.41
2022-10-06T12:45:48.668Z,-23698.28
2022-10-06T12:48:23.153Z,-23722.03
2022-10-06T12:50:54.781Z,-23718.66
2022-10-06T12:53:28.337Z,-23707.00
2022-10-06T12:56:02.152Z,-23713.56
2022-10-06T12:58:32.613Z,-23712.34
2022-10-06T13:01:00.160Z,-23725.22
2022-10-06T13:03:27.357Z,-23730.53
2022-10-06T13:06:01.166Z,-23735.41
2022-10-06T13:08:30.453Z,-23738.31
2022-10-06T13:11:15.618Z,-23751.19
2022-10-06T13:14:06.877Z,-23744.38
2022-10-06T13:16:39.595Z,-23726.19
2022-10-06T13:19:15.409Z,-23717.19
2022-10-06T13:21:42.023Z,-23711.88
2022-10-06T13:24:12.979Z,-23715.50
2022-10-06T13:26:40.806Z,-23726.91
2022-10-06T13:29:22.299Z,-23729.34
2022-10-06T13:31:55.952Z,-23724.47
2022-10-06T13:34:42.039Z,-23729.34
2022-10-06T13:37:14.444Z,-23728.84
2022-10-06T13:39:41.101Z,-23743.41
2022-10-06T13:42:17.796Z,-23741.47
2022-10-06T13:44:44.352Z,-23732.00
2022-10-06T13:47:22.640Z,-23725.44
2022-10-06T13:50:06.391Z,-23725.94
2022-10-06T13:52:39.192Z,-23730.78
2022-10-06T13:55:19.075Z,-23742.44
2022-10-06T13:57:50.763Z,-23730.31
2022-10-06T14:00:20.832Z,-23742.91
2022-10-06T14:02:50.796Z,-23728.34
2022-10-06T14:05:38.176Z,-23736.63
2022-10-06T14:08:10.451Z,-23735.16
2022-10-06T14:10:55.819Z,-23743.88
2022-10-06T14:13:51.188Z,-23729.09
2022-10-06T14:16:25.100Z,-23739.03
2022-10-06T14:19:30.076Z,-23747.28
2022-10-06T14:21:56.774Z,-23741.97
2022-10-06T14:24:26.949Z,-23728.84
2022-10-06T14:26:55.004Z,-23735.16
2022-10-06T14:29:22.396Z,-23732.25
2022-10-06T14:31:49.371Z,-23736.63
2022-10-06T14:34:18.359Z,-23732.25
2022-10-06T14:36:47.771Z,-23727.88
2022-10-06T14:39:15.665Z,-23747.28
2022-10-06T14:41:42.568Z,-23736.13
2022-10-06T14:44:11.621Z,-23735.41
2022-10-06T14:46:39.611Z,-23729.09
2022-10-06T14:49:07.661Z,-23736.13
2022-10-06T14:51:37.108Z,-23740.97
2022-10-06T14:54:05.182Z,-23736.13
2022-10-06T14:56:33.610Z,-23726.91
2022-10-06T14:59:05.619Z,-23735.16
2022-10-06T15:01:37.701Z,-23744.88
2022-10-06T15:04:09.723Z,-23736.38
2022-10-06T15:06:54.603Z,-23724.72
2022-10-06T15:09:21.363Z,-23724.47
2022-10-06T15:11:48.022Z,-23718.41
2022-10-06T15:14:14.508Z,-23729.81
2022-10-06T15:16:42.530Z,-23727.88
2022-10-06T15:19:12.020Z,-23724.00
2022-10-06T15:21:40.203Z,-23717.44
2022-10-06T15:24:10.907Z,-23730.06
2022-10-06T15:26:55.846Z,-23727.88
2022-10-06T15:29:22.457Z,-23714.03
2022-10-06T15:31:54.743Z,-23730.06
2022-10-06T15:34:25.719Z,-23715.00
2022-10-06T15:36:53.452Z,-23711.38
2022-10-06T15:39:21.959Z,-23713.81
2022-10-06T15:41:48.749Z,-23705.06
2022-10-06T15:44:16.047Z,-23710.66
2022-10-06T15:46:51.060Z,-23706.53
2022-10-06T15:49:25.523Z,-23704.09
2022-10-06T15:51:56.875Z,-23697.28
2022-10-06T15:54:25.974Z,-23700.22
2022-10-06T15:57:00.322Z,-23713.06
2022-10-06T15:59:28.797Z,-23707.00
2022-10-06T16:01:57.832Z,-23702.16
2022-10-06T16:04:56.397Z,-23695.84
2022-10-06T16:07:23.050Z,-23700.22
2022-10-06T16:09:51.022Z,-23709.44
2022-10-06T16:12:22.754Z,-23692.94
2022-10-06T16:14:49.417Z,-23690.50
2022-10-06T16:17:16.709Z,-23688.31
2022-10-06T16:19:43.631Z,-23683.72
2022-10-06T16:22:12.579Z,-23684.44
2022-10-06T16:24:39.131Z,-23676.19
2022-10-06T16:27:06.302Z,-23669.88
2022-10-06T16:29:32.959Z,-23671.09
2022-10-06T16:31:59.479Z,-23667.94
2022-10-06T16:34:26.572Z,-23663.56
2022-10-06T16:36:53.098Z,-23662.84
2022-10-06T16:39:23.423Z,-23660.44
2022-10-06T16:41:51.047Z,-23658.47
2022-10-06T16:44:18.191Z,-23657.53
2022-10-06T16:46:45.248Z,-23654.13
2022-10-06T16:49:12.129Z,-23658.97
2022-10-06T16:51:43.495Z,-23646.34
2022-10-06T16:54:12.468Z,-23641.75
2022-10-06T16:56:39.405Z,-23637.63
2022-10-06T16:59:11.596Z,-23639.56
2022-10-06T17:01:38.627Z,-23637.13
2022-10-06T17:04:17.002Z,-23630.84
2022-10-06T17:06:49.003Z,-23628.66
2022-10-06T17:09:20.581Z,-23626.94
2022-10-06T17:11:58.629Z,-23623.56
2022-10-06T17:14:26.266Z,-23623.31
2022-10-06T17:16:53.965Z,-23622.09
2022-10-06T17:19:22.647Z,-23615.06
2022-10-06T17:21:54.078Z,-23614.34
2022-10-06T17:24:25.672Z,-23613.38
2022-10-06T17:26:52.863Z,-23613.59
2022-10-06T17:29:21.830Z,-23604.13
2022-10-06T17:31:50.853Z,-23602.44
2022-10-06T17:34:21.852Z,-23603.66
2022-10-06T17:36:51.853Z,-23599.78
2022-10-06T17:39:21.434Z,-23600.03
2022-10-06T17:41:50.277Z,-23592.50
2022-10-06T17:44:22.708Z,-23601.25
2022-10-06T17:46:51.957Z,-23599.78
2022-10-06T17:49:20.763Z,-23596.88
2022-10-06T17:51:48.209Z,-23590.09
2022-10-06T17:54:18.124Z,-23585.97
2022-10-06T17:56:46.103Z,-23589.59
2022-10-06T17:59:15.663Z,-23587.41
2022-10-06T18:01:44.427Z,-23589.34
2022-10-06T18:04:15.576Z,-23581.59
2022-10-06T18:06:43.629Z,-23578.44
2022-10-06T18:09:10.528Z,-23579.41
2022-10-06T18:11:41.875Z,-23574.56
2022-10-06T18:14:16.797Z,-23574.06
2022-10-06T18:17:00.852Z,-23570.69
2022-10-06T18:19:32.935Z,-23568.97
2022-10-06T18:22:04.949Z,-23566.31
2022-10-06T18:24:32.326Z,-23571.16
2022-10-06T18:27:00.620Z,-23568.75
2022-10-06T18:29:37.885Z,-23569.72
2022-10-06T18:32:53.416Z,-23566.31
2022-10-06T18:37:39.709Z,-23560.50
2022-10-06T18:40:08.922Z,-23556.63
2022-10-06T18:42:35.938Z,-23557.59
2022-10-06T18:45:21.717Z,-23560.97
2022-10-06T18:48:06.833Z,-23554.44
2022-10-06T18:50:34.394Z,-23553.69
2022-10-06T18:53:01.662Z,-23559.53
2022-10-06T18:55:29.810Z,-23558.56
2022-10-06T18:57:56.570Z,-23557.59
2022-10-06T19:00:25.886Z,-23556.38
2022-10-06T19:02:52.410Z,-23556.84
2022-10-06T19:05:19.257Z,-23548.13
2022-10-06T19:07:46.182Z,-23549.34
2022-10-06T19:10:12.840Z,-23551.28
2022-10-06T19:12:39.317Z,-23549.59
2022-10-06T19:15:06.160Z,-23555.16
2022-10-06T19:17:32.649Z,-23554.69
2022-10-06T19:19:59.142Z,-23551.28
2022-10-06T19:22:25.655Z,-23546.91
2022-10-06T19:24:52.458Z,-23548.84
2022-10-06T19:27:24.370Z,-23544.25
2022-10-06T19:29:54.522Z,-23544.00
2022-10-06T19:32:26.796Z,-23540.38
2022-10-06T19:34:57.885Z,-23541.59
2022-10-06T19:37:27.033Z,-23542.78
2022-10-06T19:39:53.751Z,-23540.38
2022-10-06T19:42:39.088Z,-23537.22
2022-10-06T19:45:06.839Z,-23529.47
2022-10-06T19:47:33.776Z,-23528.97
2022-10-06T19:50:04.820Z,-23520.25
2022-10-06T19:52:34.350Z,-23514.41
2022-10-06T19:55:00.973Z,-23511.53
2022-10-06T19:57:29.250Z,-23521.69
2022-10-06T19:59:55.890Z,-23513.44
2022-10-06T20:02:22.862Z,-23516.59
2022-10-06T20:04:50.464Z,-23517.81
2022-10-06T20:07:17.286Z,-23506.19
2022-10-06T20:09:44.185Z,-23506.91
2022-10-06T20:12:10.738Z,-23499.63
2022-10-06T20:14:37.421Z,-23500.34
2022-10-06T20:17:04.053Z,-23500.34
2022-10-06T20:19:31.054Z,-23504.25
2022-10-06T20:21:58.008Z,-23508.13
2022-10-06T20:24:24.859Z,-23498.19
2022-10-06T20:26:52.842Z,-23498.91
2022-10-06T20:29:23.097Z,-23491.41
2022-10-06T20:31:52.436Z,-23488.25
2022-10-06T20:34:22.071Z,-23487.28
2022-10-06T20:36:54.572Z,-23496.97
2022-10-06T20:39:41.690Z,-23493.56
2022-10-06T20:42:14.559Z,-23482.44
2022-10-06T20:44:42.552Z,-23486.28
2022-10-06T20:47:10.565Z,-23480.97
2022-10-06T20:49:37.617Z,-23477.09
2022-10-06T20:52:05.128Z,-23482.91
2022-10-06T20:54:35.126Z,-23487.28
2022-10-06T20:57:04.681Z,-23486.06
2022-10-06T20:59:32.278Z,-23478.06
2022-10-06T21:02:02.067Z,-23471.25
2022-10-06T21:04:29.319Z,-23479.75
2022-10-06T21:06:56.289Z,-23482.66
2022-10-06T21:09:24.555Z,-23470.31
2022-10-06T21:11:51.305Z,-23474.19
2022-10-06T21:14:18.446Z,-23479.75
2022-10-06T21:16:47.377Z,-23481.22
2022-10-06T21:19:19.422Z,-23473.94
2022-10-06T21:21:51.951Z,-23461.34
2022-10-06T21:24:19.185Z,-23460.13
2022-10-06T21:26:46.211Z,-23462.78
2022-10-06T21:29:15.684Z,-23473.69
2022-10-06T21:31:43.763Z,-23475.16
2022-10-06T21:34:10.688Z,-23470.31
2022-10-06T21:36:37.807Z,-23469.34
2022-10-06T21:39:05.932Z,-23458.44
2022-10-06T21:41:40.309Z,-23463.03
2022-10-06T21:44:10.686Z,-23463.50
2022-10-06T21:46:41.813Z,-23466.44
2022-10-06T21:49:13.747Z,-23465.22
2022-10-06T21:51:42.470Z,-23460.59
2022-10-06T21:54:11.986Z,-23471.50
2022-10-06T21:56:39.285Z,-23472.72
2022-10-06T21:59:06.603Z,-23464.00
2022-10-06T22:01:38.613Z,-23457.44
2022-10-06T22:04:06.310Z,-23448.72
2022-10-06T22:06:35.297Z,-23455.75
2022-10-06T22:09:02.652Z,-23457.22
2022-10-06T22:11:31.744Z,-23459.88
2022-10-06T22:14:01.484Z,-23453.09
2022-10-06T22:16:30.441Z,-23453.81
2022-10-06T22:18:57.724Z,-23457.44
2022-10-06T22:21:30.694Z,-23451.41
2022-10-06T22:24:07.960Z,-23458.19
2022-10-06T22:26:37.669Z,-23458.19
2022-10-06T22:29:06.857Z,-23458.91
2022-10-06T22:31:34.326Z,-23445.81
2022-10-06T22:34:04.890Z,-23443.63
2022-10-06T22:36:32.014Z,-23439.75
2022-10-06T22:38:59.322Z,-23446.06
2022-10-06T22:41:26.729Z,-23440.97
2022-10-06T22:43:57.796Z,-23442.66
2022-10-06T22:46:25.463Z,-23441.94
2022-10-06T22:48:52.684Z,-23446.06
2022-10-06T22:51:19.635Z,-23444.38
2022-10-06T22:53:46.462Z,-23448.00
2022-10-06T22:56:13.231Z,-23436.13
2022-10-06T22:58:39.830Z,-23433.94
2022-10-06T23:01:15.108Z,-23442.44
2022-10-06T23:03:42.087Z,-23446.78
2022-10-06T23:06:11.975Z,-23451.41
2022-10-06T23:08:38.927Z,-23443.41
2022-10-06T23:11:11.998Z,-23447.03
2022-10-06T23:13:38.989Z,-23436.38
2022-10-06T23:16:08.789Z,-23439.75
2022-10-06T23:23:41.407Z,-23428.63
2022-10-06T23:26:10.712Z,-23417.94
2022-10-06T23:28:37.843Z,-23423.03
2022-10-06T23:31:06.163Z,-23416.25
2022-10-06T23:33:33.545Z,-23430.56
2022-10-06T23:36:12.110Z,-23443.16
2022-10-06T23:38:39.026Z,-23433.69
2022-10-06T23:41:06.834Z,-23433.69
2022-10-06T23:43:34.117Z,-23425.22
2022-10-06T23:46:01.692Z,-23417.22
2022-10-06T23:48:28.736Z,-23415.78
2022-10-06T23:51:00.963Z,-23418.91
2022-10-06T23:53:28.728Z,-23415.03
2022-10-06T23:55:55.341Z,-23414.31
2022-10-06T23:58:22.783Z,-23417.94
